createdAt,value
2018-05-17T00:00:28.055Z,12.49
2018-05-17T00:01:28.048Z,12.46
2018-05-17T00:02:28.018Z,12.42
2018-05-17T00:03:28.003Z,12.35
2018-05-17T00:04:27.981Z,12.39
2018-05-17T00:05:27.965Z,12.46
2018-05-17T00:06:27.962Z,12.32
2018-05-17T00:07:27.931Z,12.41
2018-05-17T00:08:27.912Z,12.29
2018-05-17T00:09:27.891Z,12.32
2018-05-17T00:10:27.873Z,12.28
2018-05-17T00:11:27.857Z,12.37
2018-05-17T00:12:27.847Z,12.32
2018-05-17T00:13:27.817Z,12.37
2018-05-17T00:14:27.799Z,12.38
2018-05-17T00:15:27.782Z,12.39
2018-05-17T00:16:27.764Z,12.37
2018-05-17T00:17:27.763Z,12.31
2018-05-17T00:18:27.726Z,12.20
2018-05-17T00:19:27.713Z,12.24
2018-05-17T00:20:27.690Z,12.14
2018-05-17T00:21:27.671Z,12.12
2018-05-17T00:22:27.670Z,12.21
2018-05-17T00:23:27.635Z,12.16
2018-05-17T00:24:27.620Z,12.09
2018-05-17T00:25:27.599Z,12.14
2018-05-17T00:26:27.583Z,12.10
2018-05-17T00:27:27.562Z,12.12
2018-05-17T00:28:27.552Z,12.07
2018-05-17T00:29:27.526Z,12.05
2018-05-17T00:30:27.507Z,11.99
2018-05-17T00:31:27.489Z,11.99
2018-05-17T00:32:27.470Z,12.02
2018-05-17T00:33:27.463Z,12.04
2018-05-17T00:34:27.432Z,12.05
2018-05-17T00:35:27.415Z,11.98
2018-05-17T00:36:27.398Z,12.02
2018-05-17T00:37:27.378Z,12.04
2018-05-17T00:38:27.375Z,12.04
2018-05-17T00:39:27.343Z,12.07
2018-05-17T00:40:27.324Z,12.05
2018-05-17T00:41:27.312Z,12.04
2018-05-17T00:42:27.292Z,11.99
2018-05-17T00:43:27.267Z,11.99
2018-05-17T00:44:27.259Z,11.86
2018-05-17T00:45:27.229Z,11.95
2018-05-17T00:46:27.211Z,11.94
2018-05-17T00:47:27.189Z,11.96
2018-05-17T00:48:27.173Z,11.88
2018-05-17T00:49:27.167Z,11.91
2018-05-17T00:50:27.138Z,11.94
2018-05-17T00:51:27.119Z,11.80
2018-05-17T00:52:27.170Z,11.86
2018-05-17T00:53:27.082Z,11.79
2018-05-17T00:54:27.080Z,11.86
2018-05-17T00:55:27.044Z,11.82
2018-05-17T00:56:27.026Z,11.83
2018-05-17T00:57:27.008Z,11.85
2018-05-17T00:58:26.988Z,11.79
2018-05-17T00:59:26.971Z,11.85
2018-05-17T01:00:26.963Z,11.73
2018-05-17T01:01:26.932Z,11.91
2018-05-17T01:02:26.914Z,11.70
2018-05-17T01:03:26.899Z,11.78
2018-05-17T01:04:26.879Z,11.73
2018-05-17T01:05:26.878Z,11.70
2018-05-17T01:06:26.840Z,11.69
2018-05-17T01:07:26.823Z,11.70
2018-05-17T01:08:26.802Z,11.72
2018-05-17T01:09:26.786Z,11.72
2018-05-17T01:10:26.765Z,11.65
2018-05-17T01:11:26.756Z,11.64
2018-05-17T01:12:26.728Z,11.70
2018-05-17T01:13:26.708Z,11.67
2018-05-17T01:14:26.690Z,11.67
2018-05-17T01:15:26.671Z,11.64
2018-05-17T01:16:26.667Z,11.62
2018-05-17T01:17:26.635Z,11.65
2018-05-17T01:18:26.614Z,11.51
2018-05-17T01:19:26.597Z,11.58
2018-05-17T01:20:26.579Z,11.55
2018-05-17T01:21:26.586Z,11.58
2018-05-17T01:22:26.540Z,11.58
2018-05-17T01:23:26.521Z,11.55
2018-05-17T01:24:26.503Z,11.55
2018-05-17T01:25:26.484Z,11.52
2018-05-17T01:26:26.463Z,11.47
2018-05-17T01:27:26.457Z,11.55
2018-05-17T01:28:26.428Z,11.49
2018-05-17T01:29:26.412Z,11.37
2018-05-17T01:30:26.391Z,11.42
2018-05-17T01:31:26.371Z,11.39
2018-05-17T01:32:26.371Z,11.39
2018-05-17T01:33:26.336Z,11.32
2018-05-17T01:34:26.313Z,11.27
2018-05-17T01:35:26.296Z,11.32
2018-05-17T01:36:26.278Z,11.36
2018-05-17T01:37:26.260Z,11.27
2018-05-17T01:38:26.253Z,11.28
2018-05-17T01:39:26.223Z,11.33
2018-05-17T01:40:26.205Z,11.25
2018-05-17T01:41:26.183Z,11.25
2018-05-17T01:42:26.164Z,11.22
2018-05-17T01:43:26.155Z,11.22
2018-05-17T01:44:26.129Z,11.24
2018-05-17T01:45:26.110Z,11.25
2018-05-17T01:46:26.089Z,11.25
2018-05-17T01:47:26.067Z,11.21
2018-05-17T01:48:26.066Z,11.17
2018-05-17T01:49:26.033Z,11.11
2018-05-17T01:50:26.011Z,11.15
2018-05-17T01:51:25.994Z,11.15
2018-05-17T01:52:25.975Z,11.17
2018-05-17T01:53:26.048Z,11.15
2018-05-17T01:54:25.947Z,11.10
2018-05-17T14:29:06.634Z,21.59
2018-05-17T14:30:06.610Z,20.97
2018-05-17T14:31:06.598Z,22.17
2018-05-17T14:32:06.590Z,21.98
2018-05-17T14:33:06.580Z,21.49
2018-05-17T14:34:06.572Z,21.37
2018-05-17T14:35:06.575Z,21.29
2018-05-17T14:36:06.552Z,21.98
2018-05-17T14:37:06.543Z,22.21
2018-05-17T14:38:06.535Z,22.57
2018-05-17T14:39:06.526Z,22.77
2018-05-17T14:40:06.529Z,22.00
2018-05-17T14:41:06.510Z,22.30
2018-05-17T14:42:06.501Z,22.64
2018-05-17T14:43:06.494Z,23.28
2018-05-17T14:44:06.484Z,22.79
2018-05-17T14:45:06.495Z,23.13
2018-05-17T14:46:06.537Z,22.45
2018-05-17T14:47:06.461Z,23.10
2018-05-17T14:48:06.454Z,22.33
2018-05-17T14:49:06.448Z,23.27
2018-05-17T14:50:06.459Z,22.25
2018-05-17T14:51:06.432Z,22.25
2018-05-17T14:52:06.425Z,22.39
2018-05-17T14:53:06.417Z,21.16
2018-05-17T14:54:06.409Z,21.83
2018-05-17T14:55:06.407Z,21.84
2018-05-17T14:56:06.406Z,21.92
2018-05-17T14:57:06.389Z,21.99
2018-05-17T14:58:06.380Z,22.58
2018-05-17T14:59:06.371Z,22.02
2018-05-17T15:00:06.368Z,21.52
2018-05-17T15:01:06.487Z,22.03
2018-05-17T15:02:06.353Z,22.00
2018-05-17T15:03:06.345Z,22.27
2018-05-17T15:04:06.339Z,21.74
2018-05-17T15:05:06.331Z,22.39
2018-05-17T15:06:06.323Z,22.62
2018-05-17T15:07:06.324Z,24.16
2018-05-17T15:08:06.308Z,22.55
2018-05-17T15:09:06.301Z,21.68
2018-05-17T15:10:06.296Z,21.28
2018-05-17T15:11:06.292Z,21.40
2018-05-17T15:12:06.302Z,22.27
2018-05-17T15:13:06.273Z,23.00
2018-05-17T15:14:06.359Z,23.25
2018-05-17T15:15:06.259Z,23.35
2018-05-17T15:16:06.252Z,22.40
2018-05-17T15:17:06.256Z,21.84
2018-05-17T15:18:06.238Z,22.05
2018-05-17T15:19:06.321Z,22.24
2018-05-17T15:20:06.224Z,23.60
2018-05-17T15:21:06.221Z,22.39
2018-05-17T15:22:06.252Z,21.28
2018-05-17T15:23:06.205Z,22.31
2018-05-17T15:24:06.199Z,21.40
2018-05-17T15:25:06.196Z,22.20
2018-05-17T15:26:06.187Z,22.73
2018-05-17T15:27:06.180Z,21.52
2018-05-17T15:28:06.182Z,22.37
2018-05-17T15:29:06.166Z,22.37
2018-05-17T15:30:06.160Z,21.49
2018-05-17T15:31:06.152Z,21.37
2018-05-17T15:32:06.147Z,21.84
2018-05-17T15:33:06.156Z,22.43
2018-05-17T15:34:06.135Z,22.20
2018-05-17T15:35:06.127Z,22.70
2018-05-17T15:36:06.123Z,22.49
2018-05-17T15:37:06.114Z,22.73
2018-05-17T15:38:06.108Z,22.31
2018-05-17T15:39:06.120Z,21.94
2018-05-17T15:40:06.097Z,21.10
2018-05-17T15:41:06.089Z,21.44
2018-05-17T15:42:06.086Z,21.94
2018-05-17T15:43:06.074Z,21.80
2018-05-17T15:44:06.078Z,21.56
2018-05-17T15:45:06.063Z,21.54
2018-05-17T15:46:06.061Z,22.12
2018-05-17T15:47:06.050Z,21.96
2018-05-17T15:48:06.048Z,22.00
2018-05-17T15:49:06.047Z,22.80
2018-05-17T15:50:06.031Z,23.51
2018-05-17T15:51:06.025Z,23.02
2018-05-17T15:52:06.019Z,22.70
2018-05-17T15:53:06.014Z,22.06
2018-05-17T15:54:06.044Z,23.01
2018-05-17T15:55:05.998Z,22.77
2018-05-17T15:56:05.992Z,21.98
2018-05-17T15:57:05.986Z,22.24
2018-05-17T15:58:05.982Z,23.33
2018-05-17T15:59:05.974Z,23.28
2018-05-17T16:00:05.978Z,21.99
2018-05-17T16:01:05.961Z,22.24
2018-05-17T16:02:05.963Z,22.52
2018-05-17T16:03:05.954Z,22.94
2018-05-17T16:04:05.944Z,23.36
2018-05-17T16:05:05.969Z,23.22
2018-05-17T16:06:05.933Z,23.33
2018-05-17T16:07:05.928Z,23.55
2018-05-17T16:08:05.924Z,24.35
2018-05-17T16:09:05.915Z,23.04
2018-05-17T16:10:05.911Z,21.69
2018-05-17T16:11:05.913Z,22.12
2018-05-17T16:12:05.896Z,23.12
2018-05-17T16:13:05.890Z,23.05
2018-05-17T16:14:05.885Z,23.01
2018-05-17T16:15:05.958Z,23.20
2018-05-17T16:16:05.886Z,23.36
2018-05-17T16:17:05.867Z,23.19
2018-05-17T16:18:05.863Z,23.48
2018-05-17T16:19:05.858Z,23.87
2018-05-17T16:20:05.854Z,23.27
2018-05-17T16:21:05.857Z,23.27
2018-05-17T16:22:05.841Z,24.06
2018-05-17T16:23:05.834Z,22.92
2018-05-17T16:24:05.831Z,22.39
2018-05-17T16:25:05.827Z,22.43
2018-05-17T16:26:05.864Z,22.27
2018-05-17T16:27:05.813Z,22.65
2018-05-17T16:28:05.809Z,23.16
2018-05-17T16:29:05.804Z,22.85
2018-05-17T16:30:05.798Z,23.42
2018-05-17T16:31:05.790Z,22.68
2018-05-17T16:32:05.796Z,22.90
2018-05-17T16:33:05.780Z,23.15
2018-05-17T16:34:05.776Z,23.60
2018-05-17T16:35:05.768Z,23.07
2018-05-17T16:36:05.764Z,22.42
2018-05-17T16:37:05.771Z,21.75
2018-05-17T16:38:05.753Z,21.54
2018-05-17T16:39:05.747Z,21.34
2018-05-17T16:40:05.738Z,22.07
2018-05-17T16:41:05.734Z,22.83
2018-05-17T16:42:05.729Z,22.43
2018-05-17T16:43:05.736Z,22.64
2018-05-17T16:44:05.713Z,23.16
2018-05-17T16:45:05.714Z,23.04
2018-05-17T16:46:05.702Z,23.31
2018-05-17T16:47:05.695Z,23.10
2018-05-17T16:48:05.699Z,23.39
2018-05-17T16:49:05.682Z,23.07
2018-05-17T16:50:05.676Z,23.43
2018-05-17T16:51:05.668Z,23.75
2018-05-17T16:52:05.666Z,24.22
2018-05-17T16:53:05.793Z,24.13
2018-05-17T16:54:05.659Z,24.02
2018-05-17T16:55:05.644Z,24.45
2018-05-17T16:56:05.637Z,23.93
2018-05-17T16:57:05.632Z,23.43
2018-05-17T16:58:05.645Z,24.12
2018-05-17T16:59:05.618Z,24.40
2018-05-17T17:00:05.613Z,24.45
2018-05-17T17:01:05.611Z,23.97
2018-05-17T17:02:05.602Z,23.69
2018-05-17T17:03:05.595Z,23.38
2018-05-17T17:04:05.600Z,23.76
2018-05-17T17:05:05.605Z,23.13
2018-05-17T17:06:05.579Z,22.90
2018-05-17T17:07:05.574Z,22.55
2018-05-17T17:08:05.565Z,22.35
2018-05-17T17:09:05.574Z,22.21
2018-05-17T17:10:05.616Z,22.83
2018-05-17T17:11:05.550Z,22.31
2018-05-17T17:12:05.543Z,22.12
2018-05-17T17:13:05.537Z,22.39
2018-05-17T17:14:05.532Z,23.39
2018-05-17T17:15:05.539Z,22.57
2018-05-17T17:16:05.522Z,22.35
2018-05-17T17:17:05.517Z,23.07
2018-05-17T17:18:05.510Z,23.15
2018-05-17T17:19:05.503Z,22.10
2018-05-17T17:20:05.511Z,22.05
2018-05-17T17:21:05.492Z,21.82
2018-05-17T17:22:05.488Z,21.71
2018-05-17T17:23:05.481Z,22.02
2018-05-17T17:24:05.473Z,22.40
2018-05-17T17:25:05.479Z,22.33
2018-05-17T17:26:05.468Z,22.46
2018-05-17T17:27:05.458Z,22.72
2018-05-17T17:28:05.449Z,22.31
2018-05-17T17:29:05.447Z,21.96
2018-05-17T17:30:05.487Z,22.33
2018-05-17T17:31:05.435Z,22.00
2018-05-17T17:32:05.427Z,22.49
2018-05-17T17:33:05.418Z,21.91
2018-05-17T17:34:05.413Z,21.64
2018-05-17T17:35:05.417Z,21.67
2018-05-17T17:36:05.400Z,21.96
2018-05-17T17:37:05.394Z,20.98
2018-05-17T17:38:05.387Z,21.03
2018-05-17T17:39:05.378Z,21.50
2018-05-17T17:40:05.388Z,21.64
2018-05-17T17:41:05.364Z,21.68
2018-05-17T17:42:05.368Z,22.06
2018-05-17T17:43:05.351Z,22.07
2018-05-17T17:44:05.345Z,21.98
2018-05-17T17:45:05.357Z,21.21
2018-05-17T17:46:05.331Z,21.29
2018-05-17T17:47:05.321Z,20.36
2018-05-17T17:48:05.318Z,20.48
2018-05-17T17:49:05.308Z,19.83
2018-05-17T17:50:05.301Z,20.08
2018-05-17T17:51:05.309Z,19.74
2018-05-17T17:52:05.284Z,19.41
2018-05-17T17:53:05.282Z,19.29
2018-05-17T17:54:05.268Z,19.16
2018-05-17T17:55:05.260Z,19.22
2018-05-17T17:56:05.254Z,18.94
2018-05-17T17:57:05.259Z,18.82
2018-05-17T17:58:05.235Z,18.90
2018-05-17T17:59:05.226Z,18.87
2018-05-17T18:00:05.217Z,18.92
2018-05-17T18:01:05.205Z,19.06
2018-05-17T18:02:05.206Z,18.95
2018-05-17T18:03:05.187Z,18.99
2018-05-17T18:04:05.177Z,18.81
2018-05-17T18:05:05.188Z,18.45
2018-05-17T18:06:05.156Z,18.57
2018-05-17T18:07:05.154Z,18.55
2018-05-17T18:08:05.134Z,18.52
2018-05-17T18:09:05.125Z,18.37
2018-05-17T18:10:05.113Z,18.52
2018-05-17T18:11:05.101Z,18.51
2018-05-17T18:12:05.100Z,18.05
2018-05-17T18:13:05.080Z,18.10
2018-05-17T18:14:05.068Z,18.03
2018-05-17T18:15:05.055Z,17.95
2018-05-17T18:16:05.043Z,17.97
2018-05-17T18:17:05.049Z,17.95
2018-05-17T18:18:05.022Z,17.92
2018-05-17T18:19:05.009Z,17.84
2018-05-17T18:20:04.995Z,17.78
2018-05-17T18:21:04.985Z,17.66
2018-05-17T18:22:04.971Z,17.63
2018-05-17T18:23:04.972Z,17.64
2018-05-17T18:24:05.036Z,17.62
2018-05-17T18:25:04.933Z,17.43
2018-05-17T18:26:04.921Z,17.44
2018-05-17T18:27:04.907Z,17.62
2018-05-17T18:28:04.905Z,17.40
2018-05-17T18:29:04.882Z,17.28
2018-05-17T18:30:04.868Z,17.22
2018-05-17T18:31:04.855Z,17.22
2018-05-17T18:32:04.855Z,17.11
2018-05-17T18:33:04.841Z,17.03
2018-05-17T18:34:04.816Z,17.12
2018-05-17T18:35:04.800Z,16.96
2018-05-17T18:36:04.788Z,16.89
2018-05-17T18:37:04.777Z,16.78
2018-05-17T18:38:04.795Z,16.68
2018-05-17T18:39:04.799Z,16.68
2018-05-17T18:40:04.736Z,16.68
2018-05-17T18:41:04.721Z,16.60
2018-05-17T18:42:04.707Z,16.63
2018-05-17T18:43:04.783Z,16.60
2018-05-17T18:44:04.689Z,16.45
2018-05-17T18:45:04.664Z,16.48
2018-05-17T18:46:04.651Z,16.38
2018-05-17T18:47:04.636Z,16.45
2018-05-17T18:48:04.623Z,16.41
2018-05-17T18:49:04.784Z,16.23
2018-05-17T18:50:04.593Z,16.17
2018-05-17T18:51:04.641Z,16.21
2018-05-17T18:52:04.566Z,16.14
2018-05-17T18:53:04.551Z,16.12
2018-05-17T18:54:04.550Z,16.04
2018-05-17T18:55:04.521Z,16.05
2018-05-17T18:56:04.515Z,16.02
2018-05-17T18:57:04.581Z,15.96
2018-05-17T18:58:04.480Z,15.90
2018-05-17T18:59:04.497Z,15.80
2018-05-17T19:00:04.449Z,15.69
2018-05-17T19:01:04.436Z,15.71
2018-05-17T19:02:04.421Z,15.69
2018-05-17T19:03:04.403Z,15.60
2018-05-17T19:04:04.391Z,15.57
2018-05-17T19:05:04.385Z,15.47
2018-05-17T19:06:04.361Z,15.44
2018-05-17T19:07:04.345Z,15.43
2018-05-17T19:08:04.330Z,15.35
2018-05-17T19:09:04.315Z,15.38
2018-05-17T19:10:04.310Z,15.28
2018-05-17T19:11:04.285Z,15.25
2018-05-17T19:12:04.270Z,15.29
2018-05-17T19:13:04.253Z,15.21
2018-05-17T19:14:04.241Z,15.28
2018-05-17T19:15:04.234Z,15.07
2018-05-17T19:16:04.209Z,15.19
2018-05-17T19:17:04.194Z,15.13
2018-05-17T19:18:04.179Z,15.14
2018-05-17T19:19:04.162Z,15.02
2018-05-17T19:20:04.160Z,15.16
2018-05-17T19:21:04.133Z,14.99
2018-05-17T19:22:04.116Z,15.03
2018-05-17T19:23:04.099Z,15.06
2018-05-17T19:24:04.085Z,14.91
2018-05-17T19:25:04.083Z,14.98
2018-05-17T19:26:04.063Z,14.86
2018-05-17T19:27:04.039Z,14.89
2018-05-17T19:28:04.022Z,14.92
2018-05-17T19:29:04.007Z,14.88
2018-05-17T19:30:03.991Z,14.86
2018-05-17T19:31:03.986Z,14.92
2018-05-17T19:32:03.959Z,14.72
2018-05-17T19:33:03.943Z,14.77
2018-05-17T19:34:03.928Z,14.73
2018-05-17T19:35:03.912Z,14.70
2018-05-17T19:36:03.917Z,14.61
2018-05-17T19:37:03.908Z,14.62
2018-05-17T19:38:03.866Z,14.68
2018-05-17T19:39:03.849Z,14.62
2018-05-17T19:40:03.831Z,14.47
2018-05-17T19:41:03.816Z,14.54
2018-05-17T19:42:03.809Z,14.45
2018-05-17T19:43:03.784Z,14.35
2018-05-17T19:44:03.767Z,14.39
2018-05-17T19:45:03.753Z,14.35
2018-05-17T19:46:03.734Z,14.22
2018-05-17T19:47:03.728Z,14.24
2018-05-17T19:48:03.702Z,14.21
2018-05-17T19:49:03.687Z,14.12
2018-05-17T19:50:03.670Z,14.12
2018-05-17T19:51:03.654Z,14.06
2018-05-17T19:52:03.649Z,14.03
2018-05-17T19:53:03.705Z,13.92
2018-05-17T19:54:03.608Z,13.96
2018-05-17T19:55:03.588Z,13.88
2018-05-17T19:56:03.578Z,13.96
2018-05-17T19:57:03.568Z,13.87
2018-05-17T19:58:03.540Z,13.84
2018-05-17T19:59:03.524Z,13.82
2018-05-17T20:00:03.509Z,13.91
2018-05-17T20:01:03.491Z,13.87
2018-05-17T20:02:03.487Z,13.85
2018-05-17T20:03:03.457Z,13.81
2018-05-17T20:04:03.441Z,13.69
2018-05-17T20:05:03.505Z,13.69
2018-05-17T20:06:03.409Z,13.66
2018-05-17T20:07:03.389Z,13.59
2018-05-17T20:08:03.384Z,13.51
2018-05-17T20:09:03.357Z,13.52
2018-05-17T20:10:03.340Z,13.54
2018-05-17T20:11:03.325Z,13.52
2018-05-17T20:12:03.315Z,13.52
2018-05-17T20:13:03.301Z,13.44
2018-05-17T20:14:03.287Z,13.46
2018-05-17T20:15:03.258Z,13.51
2018-05-17T20:16:03.239Z,13.54
2018-05-17T20:17:03.223Z,13.62
2018-05-17T20:18:03.224Z,13.44
2018-05-17T20:19:03.190Z,13.48
2018-05-17T20:20:03.175Z,13.48
2018-05-17T20:21:03.158Z,13.44
2018-05-17T20:22:03.140Z,13.33
2018-05-17T20:23:03.125Z,13.29
2018-05-17T20:24:03.125Z,13.26
2018-05-17T20:25:03.090Z,13.30
2018-05-17T20:26:03.079Z,13.17
2018-05-17T20:27:03.058Z,13.11
2018-05-17T20:28:03.039Z,13.19
2018-05-17T20:29:03.033Z,13.15
2018-05-17T20:30:03.005Z,13.08
2018-05-17T20:31:02.991Z,13.05
2018-05-17T20:32:02.973Z,13.14
2018-05-17T20:33:02.954Z,13.10
2018-05-17T20:34:02.947Z,13.01
2018-05-17T20:35:02.920Z,13.07
2018-05-17T20:36:02.904Z,12.92
2018-05-17T20:37:02.888Z,12.90
2018-05-17T20:38:02.867Z,12.87
2018-05-17T20:39:02.868Z,13.00
2018-05-17T20:40:02.833Z,12.95
2018-05-17T20:41:02.819Z,12.90
2018-05-17T20:42:02.800Z,12.85
2018-05-17T20:43:02.780Z,13.01
2018-05-17T20:44:02.766Z,13.03
2018-05-17T20:45:02.764Z,12.85
2018-05-17T20:46:02.730Z,12.86
2018-05-17T20:47:02.716Z,12.75
2018-05-17T20:48:02.696Z,12.72
2018-05-17T20:49:02.679Z,12.70
2018-05-17T20:50:02.672Z,12.70
2018-05-17T20:51:02.644Z,12.79
2018-05-17T20:52:02.632Z,12.67
2018-05-17T20:53:02.610Z,12.68
2018-05-17T20:54:02.596Z,12.74
2018-05-17T20:55:02.584Z,12.79
2018-05-17T20:56:02.558Z,12.74
2018-05-17T20:57:02.544Z,12.72
2018-05-17T20:58:02.525Z,12.65
2018-05-17T20:59:02.505Z,12.64
2018-05-17T21:00:02.507Z,12.65
2018-05-17T21:01:02.471Z,12.53
2018-05-17T21:02:02.455Z,12.65
2018-05-17T21:03:02.437Z,12.60
2018-05-17T21:04:02.421Z,12.59
2018-05-17T21:05:02.401Z,12.56
2018-05-17T21:06:02.397Z,12.62
2018-05-17T21:07:02.366Z,12.67
2018-05-17T21:08:02.348Z,12.50
2018-05-17T21:09:02.331Z,12.50
2018-05-17T21:10:02.313Z,12.54
2018-05-17T21:11:02.307Z,12.46
2018-05-17T21:12:02.277Z,12.41
2018-05-17T21:13:02.264Z,12.34
2018-05-17T21:14:02.244Z,12.41
2018-05-17T21:15:02.228Z,12.39
2018-05-17T21:16:02.220Z,12.35
2018-05-17T21:17:02.190Z,12.35
2018-05-17T21:18:02.173Z,12.34
2018-05-17T21:19:02.160Z,12.39
2018-05-17T21:20:02.140Z,12.35
2018-05-17T21:21:02.203Z,12.37
2018-05-17T21:22:02.103Z,12.31
2018-05-17T21:23:02.093Z,12.20
2018-05-17T21:24:02.068Z,12.20
2018-05-17T21:25:02.049Z,12.20
2018-05-17T21:26:02.031Z,12.13
2018-05-17T21:27:02.023Z,12.07
2018-05-17T21:28:01.995Z,11.98
2018-05-17T21:29:01.977Z,12.07
2018-05-17T21:30:01.958Z,11.98
2018-05-17T21:31:01.955Z,11.99
2018-05-17T21:32:01.934Z,11.94
2018-05-17T21:33:01.907Z,11.96
2018-05-17T21:34:01.992Z,12.07
2018-05-17T21:35:01.874Z,11.98
2018-05-17T21:36:01.852Z,11.99
2018-05-17T21:37:01.850Z,11.98
2018-05-17T21:38:01.819Z,11.95
2018-05-17T21:39:01.800Z,11.95
2018-05-17T21:40:01.783Z,11.91
2018-05-17T21:41:01.764Z,11.95
2018-05-17T21:42:01.746Z,11.94
2018-05-17T21:43:01.739Z,11.83
2018-05-17T21:44:01.771Z,11.83
2018-05-17T21:45:01.697Z,11.72
2018-05-17T21:46:01.674Z,11.80
2018-05-17T21:47:01.655Z,11.82
2018-05-17T21:48:01.652Z,11.79
2018-05-17T21:49:01.622Z,11.70
2018-05-17T21:50:01.601Z,11.62
2018-05-17T21:51:01.581Z,11.69
2018-05-17T21:52:01.570Z,11.69
2018-05-17T21:53:01.567Z,11.75
2018-05-17T21:54:01.528Z,11.91
2018-05-17T21:55:01.512Z,11.78
2018-05-17T21:56:01.492Z,11.73
2018-05-17T21:57:01.476Z,11.73
2018-05-17T21:58:01.456Z,11.65
2018-05-17T21:59:01.449Z,11.69
2018-05-17T22:00:01.421Z,11.58
2018-05-17T22:01:01.404Z,11.55
2018-05-17T22:02:01.386Z,11.58
2018-05-17T22:03:01.367Z,11.55
2018-05-17T22:04:01.357Z,11.52
2018-05-17T22:05:01.333Z,11.49
2018-05-17T22:06:01.313Z,11.55
2018-05-17T22:07:01.295Z,11.54
2018-05-17T22:08:01.276Z,11.36
2018-05-17T22:09:01.267Z,11.49
2018-05-17T22:10:01.243Z,11.47
2018-05-17T22:11:01.221Z,11.47
2018-05-17T22:12:01.203Z,11.51
2018-05-17T22:13:01.185Z,11.44
2018-05-17T22:14:01.179Z,11.49
2018-05-17T22:15:01.159Z,11.51
2018-05-17T22:16:01.130Z,11.43
2018-05-17T22:17:01.112Z,11.39
2018-05-17T22:18:01.095Z,11.40
2018-05-17T22:19:01.111Z,11.29
2018-05-17T22:20:01.055Z,11.37
2018-05-17T22:21:01.038Z,11.42
2018-05-17T22:22:01.021Z,11.36
2018-05-17T22:23:00.999Z,11.25
2018-05-17T22:24:00.982Z,11.22
2018-05-17T22:25:00.983Z,11.22
2018-05-17T22:26:00.948Z,11.19
2018-05-17T22:27:00.928Z,11.24
2018-05-17T22:28:00.909Z,11.19
2018-05-17T22:29:00.892Z,11.15
2018-05-17T22:30:00.884Z,11.11
2018-05-17T22:31:00.852Z,11.18
2018-05-17T22:32:00.833Z,11.10
2018-05-17T22:33:00.818Z,11.21
2018-05-17T22:34:00.800Z,11.10
2018-05-17T22:35:00.790Z,11.09
2018-05-17T22:36:00.762Z,10.94
2018-05-17T22:37:00.744Z,11.03
2018-05-17T22:38:00.726Z,10.96
2018-05-17T22:39:00.706Z,10.97
2018-05-17T22:40:00.703Z,11.00
2018-05-17T22:41:00.670Z,10.92
2018-05-17T22:42:00.653Z,10.88
2018-05-17T22:43:00.631Z,10.91
2018-05-17T22:44:00.614Z,10.82
2018-05-17T22:45:00.596Z,10.82
2018-05-17T22:46:00.590Z,10.82
2018-05-17T22:47:00.558Z,10.85
2018-05-17T22:48:00.547Z,10.79
2018-05-17T22:49:00.522Z,10.71
2018-05-17T22:50:00.505Z,10.68
2018-05-17T22:51:00.499Z,10.68
2018-05-17T22:52:00.463Z,10.59
2018-05-17T22:53:00.446Z,10.56
2018-05-17T22:54:00.429Z,10.60
2018-05-17T22:55:00.409Z,10.64
2018-05-17T22:56:00.388Z,10.64
2018-05-17T22:57:00.393Z,10.60
2018-05-17T22:58:00.353Z,10.59
2018-05-17T22:59:00.334Z,10.55
2018-05-17T23:00:00.314Z,10.51
2018-05-17T23:01:00.297Z,10.52
2018-05-17T23:02:00.287Z,10.44
2018-05-17T23:03:00.266Z,10.41
2018-05-17T23:04:00.239Z,10.40
2018-05-17T23:05:00.223Z,10.48
2018-05-17T23:06:00.205Z,10.38
2018-05-17T23:07:00.197Z,10.47
2018-05-17T23:08:00.165Z,10.45
2018-05-17T23:09:00.146Z,10.41
2018-05-17T23:10:00.128Z,10.47
2018-05-17T23:11:00.107Z,10.41
2018-05-17T23:12:00.111Z,10.34
2018-05-17T23:13:00.069Z,10.29
2018-05-17T23:14:00.053Z,10.34
2018-05-17T23:15:00.036Z,10.30
2018-05-17T23:16:00.015Z,10.33
2018-05-17T23:16:59.995Z,10.25
2018-05-17T23:17:59.991Z,10.26
2018-05-17T23:18:59.957Z,10.27
2018-05-17T23:19:59.938Z,10.25
2018-05-17T23:20:59.921Z,10.20
2018-05-17T23:21:59.901Z,10.20
2018-05-17T23:22:59.881Z,10.22
2018-05-17T23:23:59.872Z,10.18
2018-05-17T23:24:59.844Z,10.18
2018-05-17T23:25:59.824Z,10.11
2018-05-17T23:26:59.809Z,10.09
2018-05-17T23:27:59.792Z,10.12
2018-05-17T23:28:59.779Z,10.12
2018-05-17T23:29:59.750Z,10.17
2018-05-17T23:30:59.732Z,10.11
2018-05-17T23:31:59.710Z,10.02
2018-05-17T23:32:59.690Z,10.14
2018-05-17T23:33:59.683Z,10.05
2018-05-17T23:34:59.655Z,10.07
2018-05-17T23:35:59.634Z,9.94
2018-05-17T23:36:59.615Z,10.04
2018-05-17T23:37:59.597Z,10.09
2018-05-17T23:38:59.586Z,10.04
2018-05-17T23:39:59.557Z,9.94
2018-05-17T23:40:59.542Z,9.90
2018-05-17T23:41:59.519Z,10.04
2018-05-17T23:42:59.501Z,9.94
2018-05-17T23:43:59.501Z,9.89
2018-05-17T23:44:59.461Z,9.89
2018-05-17T23:45:59.442Z,9.83
2018-05-17T23:46:59.422Z,9.76
2018-05-17T23:47:59.403Z,9.79
2018-05-17T23:48:59.387Z,9.84
2018-05-17T23:49:59.377Z,9.83
2018-05-17T23:50:59.346Z,9.86
2018-05-17T23:51:59.327Z,9.75
2018-05-17T23:52:59.310Z,9.81
2018-05-17T23:53:59.292Z,9.81
2018-05-17T23:54:59.278Z,9.83
2018-05-17T23:55:59.250Z,9.78
2018-05-17T23:56:59.231Z,9.79
2018-05-17T23:57:59.211Z,9.87
2018-05-17T23:58:59.194Z,9.69
2018-05-17T23:59:59.193Z,9.75
